sensor_id;sensor_type;location;lat;lon;timestamp;temperature;humidity
37642;DHT22;23486;51.956;5.888;2023-06-26T00:00:21;24.40;87.90
37642;DHT22;23486;51.956;5.888;2023-06-26T00:02:46;24.30;88.20
37642;DHT22;23486;51.956;5.888;2023-06-26T00:05:12;24.30;88.50
37642;DHT22;23486;51.956;5.888;2023-06-26T00:07:39;24.20;88.90
37642;DHT22;23486;51.956;5.888;2023-06-26T00:10:05;24.30;89.30
37642;DHT22;23486;51.956;5.888;2023-06-26T00:12:31;24.20;89.50
37642;DHT22;23486;51.956;5.888;2023-06-26T00:15:00;24.20;89.80
37642;DHT22;23486;51.956;5.888;2023-06-26T00:17:26;24.20;90.10
37642;DHT22;23486;51.956;5.888;2023-06-26T00:19:52;24.20;90.20
37642;DHT22;23486;51.956;5.888;2023-06-26T00:22:18;24.10;90.30
37642;DHT22;23486;51.956;5.888;2023-06-26T00:24:44;24.10;90.50
37642;DHT22;23486;51.956;5.888;2023-06-26T00:27:12;24.00;90.60
37642;DHT22;23486;51.956;5.888;2023-06-26T00:29:38;24.00;90.80
37642;DHT22;23486;51.956;5.888;2023-06-26T00:32:04;23.90;90.80
37642;DHT22;23486;51.956;5.888;2023-06-26T00:34:30;23.90;91.00
37642;DHT22;23486;51.956;5.888;2023-06-26T00:36:59;23.90;91.10
37642;DHT22;23486;51.956;5.888;2023-06-26T00:39:25;23.80;91.30
37642;DHT22;23486;51.956;5.888;2023-06-26T00:41:51;23.60;91.40
37642;DHT22;23486;51.956;5.888;2023-06-26T00:44:19;23.60;91.60
37642;DHT22;23486;51.956;5.888;2023-06-26T00:46:45;23.60;91.80
37642;DHT22;23486;51.956;5.888;2023-06-26T00:49:11;23.60;91.90
37642;DHT22;23486;51.956;5.888;2023-06-26T00:51:38;23.50;92.00
37642;DHT22;23486;51.956;5.888;2023-06-26T00:54:03;23.40;92.20
37642;DHT22;23486;51.956;5.888;2023-06-26T00:56:30;23.40;92.30
37642;DHT22;23486;51.956;5.888;2023-06-26T00:58:56;23.30;92.40
37642;DHT22;23486;51.956;5.888;2023-06-26T01:01:22;23.30;92.50
37642;DHT22;23486;51.956;5.888;2023-06-26T01:03:52;23.20;92.60
37642;DHT22;23486;51.956;5.888;2023-06-26T01:06:23;23.20;92.70
37642;DHT22;23486;51.956;5.888;2023-06-26T01:08:49;23.30;92.80
37642;DHT22;23486;51.956;5.888;2023-06-26T01:11:18;23.20;93.00
37642;DHT22;23486;51.956;5.888;2023-06-26T01:13:44;23.30;93.10
37642;DHT22;23486;51.956;5.888;2023-06-26T01:16:10;23.20;93.20
37642;DHT22;23486;51.956;5.888;2023-06-26T01:18:38;23.20;93.40
37642;DHT22;23486;51.956;5.888;2023-06-26T01:21:07;23.20;93.50
37642;DHT22;23486;51.956;5.888;2023-06-26T01:26:23;23.20;93.80
37642;DHT22;23486;51.956;5.888;2023-06-26T01:28:52;23.20;93.80
37642;DHT22;23486;51.956;5.888;2023-06-26T01:31:19;23.20;94.00
37642;DHT22;23486;51.956;5.888;2023-06-26T01:33:45;23.20;94.00
37642;DHT22;23486;51.956;5.888;2023-06-26T01:36:12;23.10;94.10
37642;DHT22;23486;51.956;5.888;2023-06-26T01:38:37;23.10;94.20
37642;DHT22;23486;51.956;5.888;2023-06-26T01:41:04;23.10;94.50
37642;DHT22;23486;51.956;5.888;2023-06-26T01:43:56;23.10;94.40
37642;DHT22;23486;51.956;5.888;2023-06-26T01:46:25;23.00;94.40
37642;DHT22;23486;51.956;5.888;2023-06-26T01:51:44;23.00;94.30
37642;DHT22;23486;51.956;5.888;2023-06-26T01:54:15;23.10;94.20
37642;DHT22;23486;51.956;5.888;2023-06-26T01:56:43;23.10;94.10
37642;DHT22;23486;51.956;5.888;2023-06-26T01:59:11;23.10;94.00
37642;DHT22;23486;51.956;5.888;2023-06-26T02:01:39;23.10;93.90
37642;DHT22;23486;51.956;5.888;2023-06-26T02:04:05;23.10;93.90
37642;DHT22;23486;51.956;5.888;2023-06-26T02:06:31;23.10;93.80
37642;DHT22;23486;51.956;5.888;2023-06-26T02:08:56;23.10;93.80
37642;DHT22;23486;51.956;5.888;2023-06-26T02:11:23;23.10;93.80
37642;DHT22;23486;51.956;5.888;2023-06-26T02:13:48;23.10;93.80
37642;DHT22;23486;51.956;5.888;2023-06-26T02:16:14;23.10;93.90
37642;DHT22;23486;51.956;5.888;2023-06-26T02:18:39;23.00;94.00
37642;DHT22;23486;51.956;5.888;2023-06-26T02:21:06;23.00;94.10
37642;DHT22;23486;51.956;5.888;2023-06-26T02:23:32;23.00;94.20
37642;DHT22;23486;51.956;5.888;2023-06-26T02:25:58;22.90;94.30
37642;DHT22;23486;51.956;5.888;2023-06-26T02:28:23;22.90;94.40
37642;DHT22;23486;51.956;5.888;2023-06-26T02:30:52;22.80;94.50
37642;DHT22;23486;51.956;5.888;2023-06-26T02:33:20;22.70;94.50
37642;DHT22;23486;51.956;5.888;2023-06-26T02:35:46;22.60;94.50
37642;DHT22;23486;51.956;5.888;2023-06-26T02:38:11;22.50;94.50
37642;DHT22;23486;51.956;5.888;2023-06-26T02:40:38;22.40;94.60
37642;DHT22;23486;51.956;5.888;2023-06-26T02:43:03;22.40;94.70
37642;DHT22;23486;51.956;5.888;2023-06-26T02:45:29;22.30;94.70
37642;DHT22;23486;51.956;5.888;2023-06-26T02:47:55;22.20;94.80
37642;DHT22;23486;51.956;5.888;2023-06-26T02:50:20;22.20;94.80
37642;DHT22;23486;51.956;5.888;2023-06-26T02:52:46;22.10;94.90
37642;DHT22;23486;51.956;5.888;2023-06-26T02:55:16;22.10;95.10
37642;DHT22;23486;51.956;5.888;2023-06-26T02:57:41;22.00;95.30
37642;DHT22;23486;51.956;5.888;2023-06-26T03:00:07;21.80;95.40
37642;DHT22;23486;51.956;5.888;2023-06-26T03:02:33;21.80;95.60
37642;DHT22;23486;51.956;5.888;2023-06-26T03:05:01;21.70;95.60
37642;DHT22;23486;51.956;5.888;2023-06-26T03:07:28;21.70;95.80
37642;DHT22;23486;51.956;5.888;2023-06-26T03:09:53;21.70;95.80
37642;DHT22;23486;51.956;5.888;2023-06-26T03:12:19;21.70;95.90
37642;DHT22;23486;51.956;5.888;2023-06-26T03:14:45;21.70;96.10
37642;DHT22;23486;51.956;5.888;2023-06-26T03:17:10;21.60;96.10
37642;DHT22;23486;51.956;5.888;2023-06-26T03:19:36;21.60;96.30
37642;DHT22;23486;51.956;5.888;2023-06-26T03:22:01;21.60;96.30
37642;DHT22;23486;51.956;5.888;2023-06-26T03:24:29;21.60;96.50
37642;DHT22;23486;51.956;5.888;2023-06-26T03:26:54;21.60;96.90
37642;DHT22;23486;51.956;5.888;2023-06-26T03:29:20;21.50;97.00
37642;DHT22;23486;51.956;5.888;2023-06-26T03:31:46;21.50;97.20
37642;DHT22;23486;51.956;5.888;2023-06-26T03:34:11;21.50;97.30
37642;DHT22;23486;51.956;5.888;2023-06-26T03:36:37;21.40;97.50
37642;DHT22;23486;51.956;5.888;2023-06-26T03:39:02;21.40;97.50
37642;DHT22;23486;51.956;5.888;2023-06-26T03:41:29;21.40;97.70
37642;DHT22;23486;51.956;5.888;2023-06-26T03:43:58;21.40;97.90
37642;DHT22;23486;51.956;5.888;2023-06-26T03:46:25;21.30;98.10
37642;DHT22;23486;51.956;5.888;2023-06-26T03:48:51;21.30;98.40
37642;DHT22;23486;51.956;5.888;2023-06-26T03:51:17;21.30;98.50
37642;DHT22;23486;51.956;5.888;2023-06-26T03:53:42;21.20;98.90
37642;DHT22;23486;51.956;5.888;2023-06-26T03:56:08;21.20;99.20
37642;DHT22;23486;51.956;5.888;2023-06-26T03:58:33;21.20;99.30
37642;DHT22;23486;51.956;5.888;2023-06-26T04:00:59;21.20;99.50
37642;DHT22;23486;51.956;5.888;2023-06-26T04:03:27;21.20;99.70
37642;DHT22;23486;51.956;5.888;2023-06-26T04:05:53;21.20;99.50
37642;DHT22;23486;51.956;5.888;2023-06-26T04:08:18;21.20;99.70
37642;DHT22;23486;51.956;5.888;2023-06-26T04:10:45;21.20;99.90
37642;DHT22;23486;51.956;5.888;2023-06-26T04:13:11;21.10;99.90
37642;DHT22;23486;51.956;5.888;2023-06-26T04:15:39;21.10;99.90
37642;DHT22;23486;51.956;5.888;2023-06-26T04:18:05;21.10;99.90
37642;DHT22;23486;51.956;5.888;2023-06-26T04:20:30;21.10;99.90
37642;DHT22;23486;51.956;5.888;2023-06-26T04:22:56;21.10;99.90
37642;DHT22;23486;51.956;5.888;2023-06-26T04:25:22;21.10;99.90
37642;DHT22;23486;51.956;5.888;2023-06-26T04:27:47;21.20;99.90
37642;DHT22;23486;51.956;5.888;2023-06-26T04:30:13;21.20;99.90
37642;DHT22;23486;51.956;5.888;2023-06-26T04:32:38;21.20;99.90
37642;DHT22;23486;51.956;5.888;2023-06-26T04:35:04;21.20;99.90
37642;DHT22;23486;51.956;5.888;2023-06-26T04:37:30;21.20;99.90
37642;DHT22;23486;51.956;5.888;2023-06-26T04:39:56;21.10;99.90
37642;DHT22;23486;51.956;5.888;2023-06-26T04:42:21;21.10;99.90
37642;DHT22;23486;51.956;5.888;2023-06-26T04:44:47;21.10;99.90
37642;DHT22;23486;51.956;5.888;2023-06-26T04:47:13;21.00;99.90
37642;DHT22;23486;51.956;5.888;2023-06-26T04:49:40;21.00;99.90
37642;DHT22;23486;51.956;5.888;2023-06-26T04:52:11;21.00;99.90
37642;DHT22;23486;51.956;5.888;2023-06-26T04:54:39;21.00;99.90
37642;DHT22;23486;51.956;5.888;2023-06-26T04:57:05;21.00;99.90
37642;DHT22;23486;51.956;5.888;2023-06-26T04:59:31;21.00;99.90
37642;DHT22;23486;51.956;5.888;2023-06-26T05:01:56;21.00;99.90
37642;DHT22;23486;51.956;5.888;2023-06-26T05:04:22;21.00;99.90
37642;DHT22;23486;51.956;5.888;2023-06-26T05:06:48;21.00;99.90
37642;DHT22;23486;51.956;5.888;2023-06-26T05:09:14;21.00;99.90
37642;DHT22;23486;51.956;5.888;2023-06-26T05:11:39;21.00;99.90
37642;DHT22;23486;51.956;5.888;2023-06-26T05:14:05;21.00;99.90
37642;DHT22;23486;51.956;5.888;2023-06-26T05:16:34;21.00;99.90
37642;DHT22;23486;51.956;5.888;2023-06-26T05:19:00;21.10;99.90
37642;DHT22;23486;51.956;5.888;2023-06-26T05:21:26;21.10;99.90
37642;DHT22;23486;51.956;5.888;2023-06-26T05:23:56;21.10;99.90
37642;DHT22;23486;51.956;5.888;2023-06-26T05:26:22;21.20;99.90
37642;DHT22;23486;51.956;5.888;2023-06-26T05:28:48;21.20;99.90
37642;DHT22;23486;51.956;5.888;2023-06-26T05:31:15;21.10;99.90
37642;DHT22;23486;51.956;5.888;2023-06-26T05:33:43;21.20;99.90
37642;DHT22;23486;51.956;5.888;2023-06-26T05:36:09;21.20;99.90
37642;DHT22;23486;51.956;5.888;2023-06-26T05:38:42;21.40;99.90
37642;DHT22;23486;51.956;5.888;2023-06-26T05:41:08;21.50;99.90
37642;DHT22;23486;51.956;5.888;2023-06-26T05:43:37;21.50;99.90
37642;DHT22;23486;51.956;5.888;2023-06-26T05:46:02;21.50;99.90
37642;DHT22;23486;51.956;5.888;2023-06-26T05:48:28;21.50;99.90
37642;DHT22;23486;51.956;5.888;2023-06-26T05:50:54;21.40;99.90
37642;DHT22;23486;51.956;5.888;2023-06-26T05:53:20;21.40;99.90
37642;DHT22;23486;51.956;5.888;2023-06-26T05:55:45;21.40;99.90
37642;DHT22;23486;51.956;5.888;2023-06-26T05:58:12;21.40;99.90
37642;DHT22;23486;51.956;5.888;2023-06-26T06:00:39;21.50;99.90
37642;DHT22;23486;51.956;5.888;2023-06-26T06:03:05;21.50;99.90
37642;DHT22;23486;51.956;5.888;2023-06-26T06:05:31;21.40;99.90
37642;DHT22;23486;51.956;5.888;2023-06-26T06:07:56;21.50;99.90
37642;DHT22;23486;51.956;5.888;2023-06-26T06:10:22;21.50;99.90
37642;DHT22;23486;51.956;5.888;2023-06-26T06:12:47;21.50;99.90
37642;DHT22;23486;51.956;5.888;2023-06-26T06:15:13;21.50;99.90
37642;DHT22;23486;51.956;5.888;2023-06-26T06:17:39;21.50;99.90
37642;DHT22;23486;51.956;5.888;2023-06-26T06:20:07;21.50;99.90
37642;DHT22;23486;51.956;5.888;2023-06-26T06:22:33;21.50;99.90
37642;DHT22;23486;51.956;5.888;2023-06-26T06:24:59;21.50;99.90
37642;DHT22;23486;51.956;5.888;2023-06-26T06:27:26;21.50;99.90
37642;DHT22;23486;51.956;5.888;2023-06-26T06:29:55;21.60;99.90
37642;DHT22;23486;51.956;5.888;2023-06-26T06:32:21;21.70;99.70
37642;DHT22;23486;51.956;5.888;2023-06-26T06:34:46;21.70;99.50
37642;DHT22;23486;51.956;5.888;2023-06-26T06:37:12;21.70;98.70
37642;DHT22;23486;51.956;5.888;2023-06-26T06:39:37;21.70;97.80
37642;DHT22;23486;51.956;5.888;2023-06-26T06:42:03;21.70;97.90
37642;DHT22;23486;51.956;5.888;2023-06-26T06:44:29;21.70;98.00
37642;DHT22;23486;51.956;5.888;2023-06-26T06:46:56;21.80;97.80
37642;DHT22;23486;51.956;5.888;2023-06-26T06:49:21;21.90;97.50
37642;DHT22;23486;51.956;5.888;2023-06-26T06:51:47;22.00;96.90
37642;DHT22;23486;51.956;5.888;2023-06-26T06:54:15;22.10;96.80
37642;DHT22;23486;51.956;5.888;2023-06-26T06:56:40;22.20;96.70
37642;DHT22;23486;51.956;5.888;2023-06-26T06:59:06;22.20;96.40
37642;DHT22;23486;51.956;5.888;2023-06-26T07:01:32;22.20;96.30
37642;DHT22;23486;51.956;5.888;2023-06-26T07:03:57;22.10;95.90
37642;DHT22;23486;51.956;5.888;2023-06-26T07:06:23;22.00;95.90
37642;DHT22;23486;51.956;5.888;2023-06-26T07:08:48;22.00;96.10
37642;DHT22;23486;51.956;5.888;2023-06-26T07:11:15;22.00;96.20
37642;DHT22;23486;51.956;5.888;2023-06-26T07:13:40;22.10;96.60
37642;DHT22;23486;51.956;5.888;2023-06-26T07:16:06;22.10;96.40
37642;DHT22;23486;51.956;5.888;2023-06-26T07:18:32;22.30;96.30
37642;DHT22;23486;51.956;5.888;2023-06-26T07:20:57;22.50;95.80
37642;DHT22;23486;51.956;5.888;2023-06-26T07:23:23;22.60;95.60
37642;DHT22;23486;51.956;5.888;2023-06-26T07:25:48;22.70;95.20
37642;DHT22;23486;51.956;5.888;2023-06-26T07:28:14;22.70;94.80
37642;DHT22;23486;51.956;5.888;2023-06-26T07:30:39;22.50;95.00
37642;DHT22;23486;51.956;5.888;2023-06-26T07:33:05;22.30;94.80
37642;DHT22;23486;51.956;5.888;2023-06-26T07:35:34;22.20;95.10
37642;DHT22;23486;51.956;5.888;2023-06-26T07:37:59;22.30;95.30
37642;DHT22;23486;51.956;5.888;2023-06-26T07:40:26;22.30;95.20
37642;DHT22;23486;51.956;5.888;2023-06-26T07:42:51;22.30;95.20
37642;DHT22;23486;51.956;5.888;2023-06-26T07:45:19;22.30;95.00
37642;DHT22;23486;51.956;5.888;2023-06-26T07:47:45;22.30;95.10
37642;DHT22;23486;51.956;5.888;2023-06-26T07:50:11;22.40;95.20
37642;DHT22;23486;51.956;5.888;2023-06-26T07:52:37;22.60;95.30
37642;DHT22;23486;51.956;5.888;2023-06-26T07:55:05;22.70;95.30
37642;DHT22;23486;51.956;5.888;2023-06-26T07:57:31;22.70;95.40
37642;DHT22;23486;51.956;5.888;2023-06-26T07:59:57;22.80;95.20
37642;DHT22;23486;51.956;5.888;2023-06-26T08:02:23;22.80;95.10
37642;DHT22;23486;51.956;5.888;2023-06-26T08:04:48;22.70;95.00
37642;DHT22;23486;51.956;5.888;2023-06-26T08:07:14;22.60;95.20
37642;DHT22;23486;51.956;5.888;2023-06-26T08:09:40;22.60;95.40
37642;DHT22;23486;51.956;5.888;2023-06-26T08:12:08;22.60;95.20
37642;DHT22;23486;51.956;5.888;2023-06-26T08:14:34;22.70;95.10
37642;DHT22;23486;51.956;5.888;2023-06-26T08:16:59;22.60;95.00
37642;DHT22;23486;51.956;5.888;2023-06-26T08:19:25;22.70;95.10
37642;DHT22;23486;51.956;5.888;2023-06-26T08:21:50;22.80;95.10
37642;DHT22;23486;51.956;5.888;2023-06-26T08:24:16;23.00;95.20
37642;DHT22;23486;51.956;5.888;2023-06-26T08:26:45;23.10;95.10
37642;DHT22;23486;51.956;5.888;2023-06-26T08:29:11;23.30;95.10
37642;DHT22;23486;51.956;5.888;2023-06-26T08:31:46;23.40;94.70
37642;DHT22;23486;51.956;5.888;2023-06-26T08:34:12;23.50;94.30
37642;DHT22;23486;51.956;5.888;2023-06-26T08:36:46;23.40;93.90
37642;DHT22;23486;51.956;5.888;2023-06-26T08:39:15;23.30;94.00
37642;DHT22;23486;51.956;5.888;2023-06-26T08:41:40;23.20;94.30
37642;DHT22;23486;51.956;5.888;2023-06-26T08:44:07;23.10;94.50
37642;DHT22;23486;51.956;5.888;2023-06-26T08:46:33;23.10;94.40
37642;DHT22;23486;51.956;5.888;2023-06-26T08:49:12;23.20;94.00
37642;DHT22;23486;51.956;5.888;2023-06-26T08:51:43;23.20;93.70
37642;DHT22;23486;51.956;5.888;2023-06-26T08:54:12;23.20;93.50
37642;DHT22;23486;51.956;5.888;2023-06-26T08:56:42;23.20;93.10
37642;DHT22;23486;51.956;5.888;2023-06-26T08:59:09;23.30;92.90
37642;DHT22;23486;51.956;5.888;2023-06-26T09:01:36;23.30;92.10
37642;DHT22;23486;51.956;5.888;2023-06-26T09:04:02;23.20;92.30
37642;DHT22;23486;51.956;5.888;2023-06-26T09:06:28;23.30;92.30
37642;DHT22;23486;51.956;5.888;2023-06-26T09:08:55;23.30;92.10
37642;DHT22;23486;51.956;5.888;2023-06-26T09:11:20;23.40;92.20
37642;DHT22;23486;51.956;5.888;2023-06-26T09:13:46;23.50;92.10
37642;DHT22;23486;51.956;5.888;2023-06-26T09:16:13;23.50;90.60
37642;DHT22;23486;51.956;5.888;2023-06-26T09:18:40;23.40;90.80
37642;DHT22;23486;51.956;5.888;2023-06-26T09:21:08;23.40;90.90
37642;DHT22;23486;51.956;5.888;2023-06-26T09:23:34;23.40;91.00
37642;DHT22;23486;51.956;5.888;2023-06-26T09:26:05;23.40;90.10
37642;DHT22;23486;51.956;5.888;2023-06-26T09:28:38;23.40;88.70
37642;DHT22;23486;51.956;5.888;2023-06-26T09:31:05;23.50;87.40
37642;DHT22;23486;51.956;5.888;2023-06-26T09:33:35;23.30;84.00
37642;DHT22;23486;51.956;5.888;2023-06-26T09:36:19;23.00;85.60
37642;DHT22;23486;51.956;5.888;2023-06-26T09:38:45;22.70;88.30
37642;DHT22;23486;51.956;5.888;2023-06-26T09:41:17;22.60;89.70
37642;DHT22;23486;51.956;5.888;2023-06-26T09:43:47;22.70;90.00
37642;DHT22;23486;51.956;5.888;2023-06-26T09:46:31;22.80;88.90
37642;DHT22;23486;51.956;5.888;2023-06-26T09:51:34;23.10;88.90
37642;DHT22;23486;51.956;5.888;2023-06-26T09:54:00;23.30;88.20
37642;DHT22;23486;51.956;5.888;2023-06-26T09:56:27;23.40;88.30
37642;DHT22;23486;51.956;5.888;2023-06-26T09:58:55;23.50;88.80
37642;DHT22;23486;51.956;5.888;2023-06-26T10:01:29;23.80;85.60
37642;DHT22;23486;51.956;5.888;2023-06-26T10:03:54;23.80;84.30
37642;DHT22;23486;51.956;5.888;2023-06-26T10:06:37;24.00;84.00
37642;DHT22;23486;51.956;5.888;2023-06-26T10:09:07;23.90;84.10
37642;DHT22;23486;51.956;5.888;2023-06-26T10:11:56;23.70;83.20
37642;DHT22;23486;51.956;5.888;2023-06-26T10:14:22;23.40;84.50
37642;DHT22;23486;51.956;5.888;2023-06-26T10:16:50;23.40;85.10
37642;DHT22;23486;51.956;5.888;2023-06-26T10:19:18;23.50;84.80
37642;DHT22;23486;51.956;5.888;2023-06-26T10:21:50;23.40;84.00
37642;DHT22;23486;51.956;5.888;2023-06-26T10:24:16;23.30;83.80
37642;DHT22;23486;51.956;5.888;2023-06-26T10:26:50;23.20;83.90
37642;DHT22;23486;51.956;5.888;2023-06-26T10:29:19;23.30;84.20
37642;DHT22;23486;51.956;5.888;2023-06-26T10:31:57;23.40;82.80
37642;DHT22;23486;51.956;5.888;2023-06-26T10:34:29;23.50;81.50
37642;DHT22;23486;51.956;5.888;2023-06-26T10:36:59;23.50;81.20
37642;DHT22;23486;51.956;5.888;2023-06-26T10:39:26;23.50;81.00
37642;DHT22;23486;51.956;5.888;2023-06-26T10:41:54;23.40;81.90
37642;DHT22;23486;51.956;5.888;2023-06-26T10:44:21;23.50;82.40
37642;DHT22;23486;51.956;5.888;2023-06-26T10:46:54;23.70;81.90
37642;DHT22;23486;51.956;5.888;2023-06-26T10:49:29;23.90;81.90
37642;DHT22;23486;51.956;5.888;2023-06-26T10:51:55;23.90;80.00
37642;DHT22;23486;51.956;5.888;2023-06-26T10:54:23;23.90;76.80
37642;DHT22;23486;51.956;5.888;2023-06-26T10:56:57;23.90;76.90
37642;DHT22;23486;51.956;5.888;2023-06-26T10:59:28;23.90;75.50
37642;DHT22;23486;51.956;5.888;2023-06-26T11:01:58;23.90;75.30
37642;DHT22;23486;51.956;5.888;2023-06-26T11:04:47;24.00;74.00
37642;DHT22;23486;51.956;5.888;2023-06-26T11:07:22;24.10;73.60
37642;DHT22;23486;51.956;5.888;2023-06-26T11:10:09;24.10;74.10
37642;DHT22;23486;51.956;5.888;2023-06-26T11:15:12;24.30;72.70
37642;DHT22;23486;51.956;5.888;2023-06-26T11:17:39;24.50;72.70
37642;DHT22;23486;51.956;5.888;2023-06-26T11:20:12;24.60;73.20
37642;DHT22;23486;51.956;5.888;2023-06-26T11:22:40;24.60;73.80
37642;DHT22;23486;51.956;5.888;2023-06-26T11:25:08;24.40;74.20
37642;DHT22;23486;51.956;5.888;2023-06-26T11:27:40;24.50;74.30
37642;DHT22;23486;51.956;5.888;2023-06-26T11:30:07;24.50;71.30
37642;DHT22;23486;51.956;5.888;2023-06-26T11:32:33;24.40;70.20
37642;DHT22;23486;51.956;5.888;2023-06-26T11:35:01;24.30;71.00
37642;DHT22;23486;51.956;5.888;2023-06-26T11:37:27;24.20;70.90
37642;DHT22;23486;51.956;5.888;2023-06-26T11:39:52;24.10;70.90
37642;DHT22;23486;51.956;5.888;2023-06-26T11:42:21;24.10;71.00
37642;DHT22;23486;51.956;5.888;2023-06-26T11:44:47;24.00;70.80
37642;DHT22;23486;51.956;5.888;2023-06-26T11:47:17;24.00;71.30
37642;DHT22;23486;51.956;5.888;2023-06-26T11:49:48;24.30;71.90
37642;DHT22;23486;51.956;5.888;2023-06-26T11:52:14;24.50;71.80
37642;DHT22;23486;51.956;5.888;2023-06-26T11:54:40;24.50;71.10
37642;DHT22;23486;51.956;5.888;2023-06-26T11:57:06;24.50;71.60
37642;DHT22;23486;51.956;5.888;2023-06-26T11:59:36;24.70;71.50
37642;DHT22;23486;51.956;5.888;2023-06-26T12:02:09;24.90;71.30
37642;DHT22;23486;51.956;5.888;2023-06-26T12:04:41;25.20;71.40
37642;DHT22;23486;51.956;5.888;2023-06-26T12:07:08;25.20;70.50
37642;DHT22;23486;51.956;5.888;2023-06-26T12:09:46;25.10;71.10
37642;DHT22;23486;51.956;5.888;2023-06-26T12:12:14;25.20;70.50
37642;DHT22;23486;51.956;5.888;2023-06-26T12:14:41;25.00;69.20
37642;DHT22;23486;51.956;5.888;2023-06-26T12:17:11;25.10;68.30
37642;DHT22;23486;51.956;5.888;2023-06-26T12:19:38;25.20;67.90
37642;DHT22;23486;51.956;5.888;2023-06-26T12:22:07;25.40;67.90
37642;DHT22;23486;51.956;5.888;2023-06-26T12:24:34;25.60;67.70
37642;DHT22;23486;51.956;5.888;2023-06-26T12:27:01;25.60;66.70
37642;DHT22;23486;51.956;5.888;2023-06-26T12:29:32;25.70;67.30
37642;DHT22;23486;51.956;5.888;2023-06-26T12:31:58;25.80;65.90
37642;DHT22;23486;51.956;5.888;2023-06-26T12:34:46;25.50;63.90
37642;DHT22;23486;51.956;5.888;2023-06-26T12:37:12;25.50;65.60
37642;DHT22;23486;51.956;5.888;2023-06-26T12:42:18;25.50;63.90
37642;DHT22;23486;51.956;5.888;2023-06-26T12:44:43;25.40;64.80
37642;DHT22;23486;51.956;5.888;2023-06-26T12:47:09;25.40;64.40
37642;DHT22;23486;51.956;5.888;2023-06-26T12:49:37;25.10;64.50
37642;DHT22;23486;51.956;5.888;2023-06-26T12:52:05;25.10;63.70
37642;DHT22;23486;51.956;5.888;2023-06-26T12:54:31;24.90;63.00
37642;DHT22;23486;51.956;5.888;2023-06-26T12:57:01;24.80;63.20
37642;DHT22;23486;51.956;5.888;2023-06-26T12:59:29;24.90;63.60
37642;DHT22;23486;51.956;5.888;2023-06-26T13:01:55;25.00;63.70
37642;DHT22;23486;51.956;5.888;2023-06-26T13:04:21;25.00;63.00
37642;DHT22;23486;51.956;5.888;2023-06-26T13:06:46;24.90;62.70
37642;DHT22;23486;51.956;5.888;2023-06-26T13:09:12;24.80;62.80
37642;DHT22;23486;51.956;5.888;2023-06-26T13:11:38;24.70;62.60
37642;DHT22;23486;51.956;5.888;2023-06-26T13:14:04;24.60;62.80
37642;DHT22;23486;51.956;5.888;2023-06-26T13:16:31;24.70;63.60
37642;DHT22;23486;51.956;5.888;2023-06-26T13:18:58;24.90;63.60
37642;DHT22;23486;51.956;5.888;2023-06-26T13:21:24;25.00;63.30
37642;DHT22;23486;51.956;5.888;2023-06-26T13:23:50;24.90;62.60
37642;DHT22;23486;51.956;5.888;2023-06-26T13:26:16;24.60;63.10
37642;DHT22;23486;51.956;5.888;2023-06-26T13:28:41;24.60;63.70
37642;DHT22;23486;51.956;5.888;2023-06-26T13:31:07;24.70;63.30
37642;DHT22;23486;51.956;5.888;2023-06-26T13:33:32;24.50;63.10
37642;DHT22;23486;51.956;5.888;2023-06-26T13:35:58;24.30;63.70
37642;DHT22;23486;51.956;5.888;2023-06-26T13:38:24;24.30;62.60
37642;DHT22;23486;51.956;5.888;2023-06-26T13:40:54;24.20;63.60
37642;DHT22;23486;51.956;5.888;2023-06-26T13:43:29;24.70;63.90
37642;DHT22;23486;51.956;5.888;2023-06-26T13:45:56;25.00;63.40
37642;DHT22;23486;51.956;5.888;2023-06-26T13:48:22;25.40;60.60
37642;DHT22;23486;51.956;5.888;2023-06-26T13:50:50;25.40;60.00
37642;DHT22;23486;51.956;5.888;2023-06-26T13:53:21;25.30;60.10
37642;DHT22;23486;51.956;5.888;2023-06-26T13:55:47;25.10;59.70
37642;DHT22;23486;51.956;5.888;2023-06-26T13:58:13;25.30;61.10
37642;DHT22;23486;51.956;5.888;2023-06-26T14:00:40;25.40;60.80
37642;DHT22;23486;51.956;5.888;2023-06-26T14:03:07;25.40;59.80
37642;DHT22;23486;51.956;5.888;2023-06-26T14:05:36;25.00;59.60
37642;DHT22;23486;51.956;5.888;2023-06-26T14:08:07;24.90;60.30
37642;DHT22;23486;51.956;5.888;2023-06-26T14:10:33;24.70;61.40
37642;DHT22;23486;51.956;5.888;2023-06-26T14:13:00;24.50;61.00
37642;DHT22;23486;51.956;5.888;2023-06-26T14:15:25;24.10;61.60
37642;DHT22;23486;51.956;5.888;2023-06-26T14:17:54;23.80;62.60
37642;DHT22;23486;51.956;5.888;2023-06-26T14:20:21;23.70;62.60
37642;DHT22;23486;51.956;5.888;2023-06-26T14:22:48;23.60;62.90
37642;DHT22;23486;51.956;5.888;2023-06-26T14:25:16;23.60;62.90
37642;DHT22;23486;51.956;5.888;2023-06-26T14:27:42;23.60;62.70
37642;DHT22;23486;51.956;5.888;2023-06-26T14:30:08;23.70;62.90
37642;DHT22;23486;51.956;5.888;2023-06-26T14:32:35;24.00;63.30
37642;DHT22;23486;51.956;5.888;2023-06-26T14:35:01;24.50;63.00
37642;DHT22;23486;51.956;5.888;2023-06-26T14:37:28;24.90;61.20
37642;DHT22;23486;51.956;5.888;2023-06-26T14:39:54;25.10;61.70
37642;DHT22;23486;51.956;5.888;2023-06-26T14:42:20;25.40;61.10
37642;DHT22;23486;51.956;5.888;2023-06-26T14:44:45;25.80;60.70
37642;DHT22;23486;51.956;5.888;2023-06-26T14:47:18;25.90;58.40
37642;DHT22;23486;51.956;5.888;2023-06-26T14:49:44;25.80;58.90
37642;DHT22;23486;51.956;5.888;2023-06-26T14:52:09;25.90;58.70
37642;DHT22;23486;51.956;5.888;2023-06-26T14:54:35;25.80;57.30
37642;DHT22;23486;51.956;5.888;2023-06-26T14:57:07;25.70;58.10
37642;DHT22;23486;51.956;5.888;2023-06-26T14:59:33;25.60;58.20
37642;DHT22;23486;51.956;5.888;2023-06-26T15:01:58;25.60;58.50
37642;DHT22;23486;51.956;5.888;2023-06-26T15:04:24;25.50;58.50
37642;DHT22;23486;51.956;5.888;2023-06-26T15:06:50;25.40;57.90
37642;DHT22;23486;51.956;5.888;2023-06-26T15:09:15;25.10;58.30
37642;DHT22;23486;51.956;5.888;2023-06-26T15:11:41;25.00;59.30
37642;DHT22;23486;51.956;5.888;2023-06-26T15:14:07;25.10;58.70
37642;DHT22;23486;51.956;5.888;2023-06-26T15:16:33;25.00;59.10
37642;DHT22;23486;51.956;5.888;2023-06-26T15:18:58;25.00;58.30
37642;DHT22;23486;51.956;5.888;2023-06-26T15:21:24;24.60;58.60
37642;DHT22;23486;51.956;5.888;2023-06-26T15:23:50;24.50;60.00
37642;DHT22;23486;51.956;5.888;2023-06-26T15:26:16;24.60;60.60
37642;DHT22;23486;51.956;5.888;2023-06-26T15:28:41;24.60;59.60
37642;DHT22;23486;51.956;5.888;2023-06-26T15:31:07;24.60;60.00
37642;DHT22;23486;51.956;5.888;2023-06-26T15:33:33;24.60;60.40
37642;DHT22;23486;51.956;5.888;2023-06-26T15:35:58;24.70;60.30
37642;DHT22;23486;51.956;5.888;2023-06-26T15:38:29;24.90;59.70
37642;DHT22;23486;51.956;5.888;2023-06-26T15:40:55;24.70;59.20
37642;DHT22;23486;51.956;5.888;2023-06-26T15:43:21;24.70;59.80